Time;durP1;ratioP1;P1;durP2;ratioP2;P2;SDS_P1;SDS_P2;PMS_P1;PMS_P2;Temp;Humidity;BMP_temperature;BMP_pressure;BME280_temperature;BME280_humidity;BME280_pressure;Samples;Min_cycle;Max_cycle;Signal;HPM_P1;HPM_P2
2022/05/28 00:00:12;;;;;;;5.22;2.30;;;15.00;98.30;;;;;;5066602;28;20056;-82
2022/05/28 00:02:38;;;;;;;5.45;2.08;;;15.00;98.40;;;;;;5065701;28;20045;-82
2022/05/28 00:05:05;;;;;;;4.15;1.95;;;15.00;98.40;;;;;;5067682;28;20045;-82
2022/05/28 00:07:31;;;;;;;4.72;2.30;;;14.90;98.40;;;;;;5064687;28;20033;-82
2022/05/28 00:09:57;;;;;;;9.82;2.60;;;14.90;98.50;;;;;;5065406;28;20041;-82
2022/05/28 00:12:29;;;;;;;5.72;2.72;;;14.90;98.50;;;;;;5068526;28;20061;-82
2022/05/28 00:14:56;;;;;;;4.88;2.50;;;14.90;98.50;;;;;;5065105;28;20041;-82
2022/05/28 00:17:23;;;;;;;6.28;4.13;;;14.80;98.60;;;;;;5062926;28;20574;-82
2022/05/28 00:19:49;;;;;;;3.85;1.92;;;14.80;98.70;;;;;;5065866;28;20577;-82
2022/05/28 00:22:15;;;;;;;8.30;2.42;;;14.80;98.70;;;;;;5064675;28;20084;-82
2022/05/28 00:24:40;;;;;;;5.70;2.65;;;14.70;98.80;;;;;;5066549;28;20829;-82
2022/05/28 00:27:06;;;;;;;7.88;3.17;;;14.70;98.80;;;;;;5063535;28;20155;-82
2022/05/28 00:29:32;;;;;;;6.82;2.70;;;14.70;98.90;;;;;;5065681;28;20079;-82
2022/05/28 00:31:58;;;;;;;8.70;4.07;;;14.70;98.80;;;;;;5063777;28;20534;-82
2022/05/28 00:34:25;;;;;;;7.57;2.78;;;14.70;99.00;;;;;;5067044;28;20957;-82
2022/05/28 00:36:51;;;;;;;7.60;2.70;;;14.70;99.00;;;;;;5062518;28;22495;-81
2022/05/28 00:39:17;;;;;;;12.05;6.72;;;14.60;99.00;;;;;;5062744;28;20068;-81
2022/05/28 00:41:44;;;;;;;8.10;3.22;;;14.60;99.00;;;;;;5066092;28;20094;-82
2022/05/28 00:44:10;;;;;;;8.32;2.85;;;14.60;99.10;;;;;;5064978;28;20088;-81
2022/05/28 00:46:36;;;;;;;7.68;3.40;;;14.60;99.20;;;;;;5064145;28;20056;-81
2022/05/28 00:49:07;;;;;;;7.53;3.35;;;14.60;99.20;;;;;;5063125;28;20052;-81
2022/05/28 00:51:40;;;;;;;9.13;3.05;;;14.50;99.30;;;;;;5066326;28;20144;-81
2022/05/28 00:54:08;;;;;;;5.53;2.42;;;14.50;99.40;;;;;;5066495;28;20041;-81
2022/05/28 00:56:35;;;;;;;6.88;2.67;;;14.50;99.40;;;;;;5067981;28;20148;-81
2022/05/28 00:59:01;;;;;;;11.98;2.95;;;14.50;99.40;;;;;;5058832;28;20049;-81
2022/05/28 01:01:30;;;;;;;6.75;3.15;;;14.50;99.40;;;;;;5061784;28;20048;-81
2022/05/28 01:04:34;;;;;;;15.57;3.33;;;14.40;99.50;;;;;;5063409;28;20041;-81
2022/05/28 01:07:28;;;;;;;9.30;3.70;;;14.40;99.60;;;;;;5064922;28;20055;-81
2022/05/28 01:10:22;;;;;;;6.15;3.20;;;14.30;99.60;;;;;;5064371;28;20045;-81
2022/05/28 01:13:01;;;;;;;7.60;2.78;;;14.30;99.70;;;;;;5058203;28;20121;-81
2022/05/28 01:15:38;;;;;;;8.40;2.78;;;14.30;99.80;;;;;;5065255;28;20037;-81
2022/05/28 01:18:33;;;;;;;9.15;3.13;;;14.20;99.80;;;;;;5063201;28;20116;-81
2022/05/28 01:21:34;;;;;;;9.10;3.70;;;14.40;99.90;;;;;;5066579;27;20113;-81
2022/05/28 01:24:14;;;;;;;7.47;3.35;;;14.20;99.90;;;;;;5064878;28;20049;-81
2022/05/28 01:26:56;;;;;;;6.95;3.28;;;14.20;99.90;;;;;;5048793;28;20045;-81
2022/05/28 01:29:25;;;;;;;15.45;3.58;;;14.20;99.90;;;;;;5064230;28;20474;-82
2022/05/28 01:31:51;;;;;;;8.05;3.03;;;14.20;99.90;;;;;;5064710;28;20051;-81
2022/05/28 01:34:19;;;;;;;8.88;3.50;;;14.10;99.90;;;;;;5066229;28;20130;-81
2022/05/28 01:36:47;;;;;;;9.77;3.22;;;14.10;99.90;;;;;;5080658;28;20045;-81
2022/05/28 01:39:14;;;;;;;9.18;3.20;;;14.00;99.90;;;;;;5065078;28;20037;-81
2022/05/28 01:41:40;;;;;;;6.68;3.90;;;14.00;99.90;;;;;;5062342;28;20037;-81
2022/05/28 01:44:11;;;;;;;9.45;3.67;;;14.00;99.90;;;;;;5064523;28;21129;-81
2022/05/28 01:46:39;;;;;;;9.27;4.10;;;14.00;99.90;;;;;;5065137;28;21058;-81
2022/05/28 01:49:08;;;;;;;7.50;4.18;;;14.00;99.90;;;;;;5061758;28;20517;-81
2022/05/28 01:51:39;;;;;;;11.20;4.00;;;13.90;99.90;;;;;;5062985;28;20163;-81
2022/05/28 01:54:07;;;;;;;9.43;4.28;;;13.90;99.90;;;;;;5062666;28;20048;-81
2022/05/28 01:56:35;;;;;;;11.00;4.82;;;13.90;99.90;;;;;;5067766;28;20286;-81
2022/05/28 01:59:01;;;;;;;8.18;4.45;;;13.90;99.90;;;;;;5062123;28;20547;-81
2022/05/28 02:01:27;;;;;;;8.13;4.22;;;13.90;99.90;;;;;;5063674;28;20049;-81
2022/05/28 02:03:58;;;;;;;13.27;5.25;;;13.80;99.90;;;;;;5064477;28;20045;-81
2022/05/28 02:06:25;;;;;;;14.50;4.10;;;13.80;99.90;;;;;;5064334;28;20040;-81
2022/05/28 02:08:55;;;;;;;7.88;3.90;;;13.80;99.90;;;;;;5062763;28;20041;-81
2022/05/28 02:11:24;;;;;;;8.93;4.22;;;13.80;99.90;;;;;;5063596;28;20055;-81
2022/05/28 02:14:23;;;;;;;8.20;3.47;;;13.80;99.90;;;;;;5063684;28;20132;-80
2022/05/28 02:16:49;;;;;;;10.80;3.78;;;13.70;99.90;;;;;;5046445;28;20045;-81
2022/05/28 02:19:38;;;;;;;11.52;3.65;;;13.70;99.90;;;;;;5061604;28;20511;-81
2022/05/28 02:22:12;;;;;;;12.23;5.15;;;13.70;99.90;;;;;;5047744;28;20168;-81
2022/05/28 02:24:44;;;;;;;11.90;5.70;;;13.70;99.90;;;;;;5060614;28;20055;-81
2022/05/28 02:27:14;;;;;;;20.55;4.82;;;13.70;99.90;;;;;;5062495;28;20561;-81
2022/05/28 02:29:40;;;;;;;9.35;3.78;;;14.00;99.90;;;;;;5062081;28;20083;-81
2022/05/28 02:32:28;;;;;;;7.18;3.80;;;13.80;99.90;;;;;;5064475;28;20120;-81
2022/05/28 02:34:59;;;;;;;16.02;4.80;;;13.80;99.90;;;;;;5047645;28;20052;-81
2022/05/28 02:37:30;;;;;;;9.85;4.75;;;13.70;99.90;;;;;;5064086;28;20044;-81
2022/05/28 02:40:16;;;;;;;9.48;4.25;;;13.60;99.90;;;;;;5062001;28;20510;-81
2022/05/28 02:42:42;;;;;;;14.15;4.53;;;13.30;99.90;;;;;;5063183;27;20159;-81
2022/05/28 02:45:08;;;;;;;10.80;4.30;;;13.70;99.90;;;;;;5061762;28;20045;-81
2022/05/28 02:47:34;;;;;;;10.45;6.10;;;13.60;99.90;;;;;;5063815;28;20052;-81
2022/05/28 02:50:00;;;;;;;7.13;3.80;;;13.60;99.90;;;;;;5062615;28;20048;-81
2022/05/28 02:52:26;;;;;;;11.10;5.28;;;13.60;99.90;;;;;;5060368;28;20598;-81
2022/05/28 02:54:51;;;;;;;12.50;4.15;;;13.60;99.90;;;;;;5063463;28;20040;-80
2022/05/28 02:57:17;;;;;;;10.13;3.95;;;13.50;99.90;;;;;;5063060;28;20071;-81
2022/05/28 02:59:43;;;;;;;15.30;5.28;;;13.60;99.90;;;;;;5064654;28;20072;-81
2022/05/28 03:02:09;;;;;;;8.82;3.65;;;13.50;99.90;;;;;;5062608;28;20049;-81
2022/05/28 03:04:35;;;;;;;9.88;5.03;;;13.60;99.90;;;;;;5060408;28;20041;-81
2022/05/28 03:07:00;;;;;;;8.15;5.22;;;13.60;99.90;;;;;;5062623;28;20314;-81
2022/05/28 03:09:26;;;;;;;8.18;4.28;;;13.60;99.90;;;;;;5061946;28;20040;-81
2022/05/28 03:11:52;;;;;;;10.68;4.85;;;13.60;99.90;;;;;;5065962;28;20049;-81
2022/05/28 03:14:20;;;;;;;6.80;4.20;;;13.60;99.90;;;;;;5061387;28;20036;-82
2022/05/28 03:16:46;;;;;;;9.55;3.38;;;13.60;99.90;;;;;;5079550;28;20322;-80
2022/05/28 03:19:12;;;;;;;10.23;4.93;;;13.60;99.90;;;;;;5062266;28;20048;-81
2022/05/28 03:21:38;;;;;;;16.35;5.85;;;13.50;99.90;;;;;;5062633;28;20148;-81
2022/05/28 03:24:11;;;;;;;9.80;5.30;;;13.50;99.90;;;;;;5062787;28;20156;-81
2022/05/28 03:26:38;;;;;;;11.80;4.22;;;13.50;99.90;;;;;;5077923;27;20048;-80
2022/05/28 03:29:04;;;;;;;9.63;3.90;;;13.50;99.90;;;;;;5063135;28;20847;-81
2022/05/28 03:31:31;;;;;;;7.03;3.35;;;13.40;99.90;;;;;;5061997;28;20618;-81
2022/05/28 03:33:57;;;;;;;10.70;4.30;;;13.40;99.90;;;;;;5059994;28;20072;-81
2022/05/28 03:36:25;;;;;;;9.07;4.07;;;13.40;99.90;;;;;;5063624;28;20053;-81
2022/05/28 03:38:51;;;;;;;11.35;5.53;;;13.40;99.90;;;;;;5062509;28;20926;-81
2022/05/28 03:41:20;;;;;;;11.98;3.90;;;13.40;99.90;;;;;;5060341;28;20052;-81
2022/05/28 03:43:46;;;;;;;9.05;4.15;;;13.40;99.90;;;;;;5061295;28;20566;-81
2022/05/28 03:46:29;;;;;;;5.72;3.35;;;13.30;99.90;;;;;;5061728;28;20052;-81
2022/05/28 03:48:59;;;;;;;11.07;4.20;;;13.30;99.90;;;;;;5062240;28;20763;-81
2022/05/28 03:51:25;;;;;;;9.82;4.05;;;13.30;99.90;;;;;;5061578;28;20474;-81
2022/05/28 03:53:51;;;;;;;10.70;4.43;;;13.30;99.90;;;;;;5062513;28;20032;-81
2022/05/28 03:57:04;;;;;;;12.88;4.10;;;13.30;99.90;;;;;;5062436;28;20036;-81
2022/05/28 04:00:01;;;;;;;10.23;5.95;;;13.30;99.90;;;;;;5061309;28;20049;-81
2022/05/28 04:06:31;;;;;;;12.38;4.15;;;13.20;99.90;;;;;;4963726;28;20050;-81
2022/05/28 04:09:18;;;;;;;;;;;;;;;;;;;;;
2022/05/28 04:11:45;;;;;;;8.38;4.20;;;13.20;99.90;;;;;;4983694;28;39804;-81
2022/05/28 04:14:11;;;;;;;10.02;3.42;;;13.20;99.90;;;;;;4983206;28;20034;-81
2022/05/28 04:16:38;;;;;;;11.25;4.20;;;13.20;99.90;;;;;;5058902;28;20083;-81
2022/05/28 04:19:04;;;;;;;9.27;3.45;;;13.60;99.90;;;;;;5062981;28;20052;-81
2022/05/28 04:21:30;;;;;;;11.18;5.30;;;13.20;99.90;;;;;;5060899;28;20044;-81
2022/05/28 04:23:57;;;;;;;10.93;4.38;;;13.20;99.90;;;;;;5062621;28;20044;-80
2022/05/28 04:26:23;;;;;;;9.18;4.70;;;13.20;99.90;;;;;;5058624;28;20052;-81
2022/05/28 04:28:48;;;;;;;12.57;3.83;;;13.20;99.90;;;;;;5074872;28;20131;-81
2022/05/28 04:31:14;;;;;;;10.55;3.80;;;13.20;99.90;;;;;;5061252;28;20044;-81
2022/05/28 04:33:40;;;;;;;8.35;3.30;;;13.20;99.90;;;;;;5064713;28;21154;-81
2022/05/28 04:36:06;;;;;;;10.13;3.28;;;13.20;99.90;;;;;;5066069;28;20045;-81
2022/05/28 04:38:31;;;;;;;9.85;4.15;;;13.20;99.90;;;;;;5066183;28;20060;-81
2022/05/28 04:40:57;;;;;;;12.20;3.78;;;13.20;99.90;;;;;;5064375;28;20044;-81
2022/05/28 04:43:23;;;;;;;8.82;3.88;;;13.20;99.90;;;;;;5063891;28;21097;-81
2022/05/28 04:45:49;;;;;;;13.90;3.78;;;13.20;99.90;;;;;;5065732;28;20048;-81
2022/05/28 04:48:15;;;;;;;9.60;3.85;;;13.20;99.90;;;;;;5062966;28;20041;-81
2022/05/28 04:50:41;;;;;;;13.35;4.07;;;13.20;99.90;;;;;;5066425;28;20562;-81
2022/05/28 04:53:12;;;;;;;10.90;3.60;;;13.20;99.90;;;;;;5065723;28;20054;-81
2022/05/28 04:55:39;;;;;;;7.20;3.72;;;13.00;99.90;;;;;;5065123;28;20049;-81
2022/05/28 04:58:06;;;;;;;9.20;3.70;;;13.20;99.90;;;;;;5062681;28;20783;-81
2022/05/28 05:00:33;;;;;;;10.27;3.25;;;13.10;99.90;;;;;;5047483;28;20491;-81
2022/05/28 05:02:59;;;;;;;6.80;4.28;;;13.20;99.90;;;;;;5079272;28;20120;-81
2022/05/28 05:05:25;;;;;;;10.45;3.70;;;13.10;99.90;;;;;;5063984;28;20068;-82
2022/05/28 05:07:50;;;;;;;12.35;4.38;;;13.20;99.90;;;;;;5064859;28;20160;-81
2022/05/28 05:10:16;;;;;;;10.52;4.10;;;13.10;99.90;;;;;;5066355;28;20049;-81
2022/05/28 05:12:42;;;;;;;10.57;4.43;;;13.20;99.90;;;;;;5065095;28;20057;-82
2022/05/28 05:15:08;;;;;;;14.80;4.05;;;13.20;99.90;;;;;;5064458;28;20045;-81
2022/05/28 05:17:34;;;;;;;11.95;5.55;;;13.20;99.90;;;;;;5062491;28;20048;-81
2022/05/28 05:19:59;;;;;;;9.75;4.75;;;13.30;99.90;;;;;;5065123;28;20044;-81
2022/05/28 05:22:25;;;;;;;11.00;4.43;;;13.20;99.90;;;;;;5065330;28;20032;-81
2022/05/28 05:24:52;;;;;;;7.38;3.75;;;13.20;99.90;;;;;;5063800;28;20044;-81
2022/05/28 05:27:22;;;;;;;9.38;5.47;;;13.20;99.90;;;;;;5065243;28;20037;-82
2022/05/28 05:29:58;;;;;;;15.32;4.95;;;13.20;99.90;;;;;;5044899;28;20772;-82
2022/05/28 05:32:37;;;;;;;12.82;3.78;;;12.70;99.90;;;;;;5079015;28;20831;-81
2022/05/28 05:35:14;;;;;;;8.27;3.38;;;13.00;99.90;;;;;;5065188;28;20040;-81
2022/05/28 05:37:42;;;;;;;7.07;3.80;;;13.50;99.90;;;;;;5034306;28;20122;-81
2022/05/28 05:40:23;;;;;;;8.50;3.28;;;13.20;99.90;;;;;;5065088;28;20095;-81
2022/05/28 05:43:15;;;;;;;9.13;4.05;;;13.20;99.90;;;;;;5048353;28;20041;-81
2022/05/28 05:46:04;;;;;;;11.65;4.63;;;13.20;99.90;;;;;;5060740;28;20049;-81
2022/05/28 05:48:30;;;;;;;10.30;4.38;;;13.20;99.90;;;;;;5061883;28;20045;-81
2022/05/28 05:51:29;;;;;;;8.68;3.55;;;13.20;99.90;;;;;;5066282;28;20541;-81
2022/05/28 05:54:01;;;;;;;12.50;4.18;;;13.30;99.90;;;;;;5061687;28;20884;-81
2022/05/28 05:56:33;;;;;;;10.85;4.22;;;13.20;99.90;;;;;;5076270;27;20049;-81
2022/05/28 05:58:59;;;;;;;8.95;4.15;;;13.60;99.90;;;;;;5060481;28;20044;-81
2022/05/28 06:01:26;;;;;;;14.38;6.15;;;13.30;99.90;;;;;;5064441;28;20538;-81
2022/05/28 06:03:52;;;;;;;10.63;4.32;;;13.30;99.90;;;;;;5064443;28;20045;-81
2022/05/28 06:06:35;;;;;;;13.05;4.32;;;13.30;99.90;;;;;;5064399;28;20080;-81
2022/05/28 06:09:29;;;;;;;11.57;3.88;;;13.30;99.90;;;;;;5031441;28;20049;-81
2022/05/28 06:11:55;;;;;;;10.43;3.85;;;13.30;99.90;;;;;;5063498;28;20495;-81
2022/05/28 06:14:43;;;;;;;10.40;4.25;;;13.40;99.90;;;;;;5060545;28;20503;-81
2022/05/28 06:17:09;;;;;;;11.38;5.60;;;13.40;99.90;;;;;;5064229;28;20040;-81
2022/05/28 06:19:55;;;;;;;10.75;4.50;;;13.40;99.90;;;;;;5064026;28;20077;-81
2022/05/28 06:22:21;;;;;;;14.05;5.00;;;13.40;99.90;;;;;;5079864;28;20048;-81
2022/05/28 06:24:46;;;;;;;13.07;5.57;;;13.50;99.90;;;;;;5063020;28;20734;-81
2022/05/28 06:27:12;;;;;;;14.30;5.82;;;13.50;99.90;;;;;;5063356;28;20565;-82
2022/05/28 06:29:38;;;;;;;17.27;4.95;;;13.50;99.90;;;;;;5062589;28;20144;-81
2022/05/28 06:32:04;;;;;;;12.05;4.85;;;13.40;99.90;;;;;;5062944;28;20037;-81
2022/05/28 06:34:30;;;;;;;26.63;7.32;;;13.50;99.90;;;;;;5060404;28;20047;-82
2022/05/28 06:36:55;;;;;;;14.85;5.45;;;13.60;99.90;;;;;;5064485;28;20051;-82
2022/05/28 06:39:31;;;;;;;10.43;5.25;;;13.60;99.90;;;;;;5061619;28;20114;-81
2022/05/28 06:42:15;;;;;;;16.60;5.22;;;13.60;99.90;;;;;;5061430;28;20044;-81
2022/05/28 06:47:36;;;;;;;12.05;4.75;;;13.60;99.90;;;;;;5063298;28;20535;-82
2022/05/28 06:52:46;;;;;;;19.55;5.80;;;13.70;99.90;;;;;;5061630;28;20894;-82
2022/05/28 06:55:12;;;;;;;17.45;5.28;;;13.70;99.90;;;;;;5061651;28;20045;-81
2022/05/28 06:57:38;;;;;;;18.42;6.65;;;13.70;99.90;;;;;;5063498;28;20041;-81
2022/05/28 07:00:05;;;;;;;19.45;6.60;;;13.70;99.90;;;;;;5063128;28;20084;-82
2022/05/28 07:02:30;;;;;;;13.40;5.70;;;13.70;99.90;;;;;;5060199;28;20048;-81
2022/05/28 07:04:56;;;;;;;14.75;6.10;;;13.70;99.90;;;;;;5059928;28;20150;-82
2022/05/28 07:07:22;;;;;;;16.23;6.85;;;13.80;99.90;;;;;;5058901;28;20071;-82
2022/05/28 07:09:47;;;;;;;15.38;6.55;;;13.80;99.90;;;;;;5063997;28;20468;-82
2022/05/28 07:12:16;;;;;;;12.48;7.20;;;13.80;99.90;;;;;;5058419;28;20049;-83
2022/05/28 07:14:42;;;;;;;12.95;8.57;;;13.90;99.90;;;;;;5060495;28;20527;-82
2022/05/28 07:17:08;;;;;;;16.15;6.45;;;13.90;99.90;;;;;;5062660;28;20045;-82
2022/05/28 07:19:34;;;;;;;19.90;7.53;;;13.90;99.90;;;;;;5063013;28;20036;-82
2022/05/28 07:21:59;;;;;;;18.38;7.20;;;13.90;99.90;;;;;;5060337;28;20044;-83
2022/05/28 07:24:27;;;;;;;16.02;9.20;;;13.90;99.90;;;;;;5062397;28;20128;-83
2022/05/28 07:26:53;;;;;;;17.70;7.35;;;13.90;99.90;;;;;;5080284;28;20049;-82
2022/05/28 07:29:20;;;;;;;13.85;7.28;;;13.90;99.90;;;;;;5062335;28;20044;-82
2022/05/28 07:31:46;;;;;;;20.02;6.97;;;13.90;99.90;;;;;;5063908;28;20044;-82
2022/05/28 07:34:12;;;;;;;16.88;8.50;;;14.00;99.90;;;;;;5063752;28;20037;-82
2022/05/28 07:36:38;;;;;;;15.18;7.70;;;14.00;99.90;;;;;;5064399;28;20161;-82
2022/05/28 07:39:04;;;;;;;14.93;6.80;;;14.00;99.90;;;;;;5064992;28;20410;-82
2022/05/28 07:41:30;;;;;;;21.65;7.53;;;14.10;99.90;;;;;;5063661;28;20917;-82
2022/05/28 07:43:57;;;;;;;17.00;7.75;;;14.10;99.90;;;;;;5063196;28;20041;-83
2022/05/28 07:46:29;;;;;;;20.73;6.88;;;14.10;99.90;;;;;;5065068;28;20037;-83
2022/05/28 07:48:56;;;;;;;14.98;6.47;;;14.10;99.90;;;;;;5046888;28;21137;-83
2022/05/28 07:51:22;;;;;;;16.88;7.75;;;14.20;99.90;;;;;;5066697;28;20045;-83
2022/05/28 07:53:48;;;;;;;19.35;6.85;;;14.10;99.90;;;;;;5067018;28;20093;-83
2022/05/28 07:56:15;;;;;;;15.70;6.85;;;14.20;99.90;;;;;;5067204;28;20523;-83
2022/05/28 07:58:41;;;;;;;21.50;8.88;;;14.20;99.90;;;;;;5070057;28;20045;-84
2022/05/28 08:01:07;;;;;;;18.05;7.93;;;14.20;99.90;;;;;;5068534;28;20160;-83
2022/05/28 08:03:34;;;;;;;19.15;6.88;;;14.30;99.90;;;;;;5070080;28;20511;-83
2022/05/28 08:06:01;;;;;;;16.85;6.03;;;14.30;99.90;;;;;;5068281;28;20032;-83
2022/05/28 08:08:28;;;;;;;15.00;6.55;;;14.30;99.90;;;;;;5068301;28;20040;-83
2022/05/28 08:10:54;;;;;;;12.35;5.97;;;14.40;99.90;;;;;;5067913;28;20041;-83
2022/05/28 08:13:23;;;;;;;13.02;5.53;;;14.30;99.90;;;;;;5068110;28;20128;-83
2022/05/28 08:15:54;;;;;;;10.77;5.38;;;14.40;99.90;;;;;;5068857;28;20041;-83
2022/05/28 08:18:26;;;;;;;16.92;6.70;;;14.40;99.90;;;;;;5067379;28;20052;-82
2022/05/28 08:23:38;;;;;;;13.68;6.25;;;14.40;99.90;;;;;;5065120;28;20057;-83
2022/05/28 08:26:04;;;;;;;13.38;5.63;;;14.50;99.90;;;;;;5065568;28;20044;-84
2022/05/28 08:28:30;;;;;;;8.93;5.30;;;14.50;99.90;;;;;;5065997;28;20214;-82
2022/05/28 08:30:56;;;;;;;14.45;5.18;;;14.50;99.90;;;;;;5065473;28;20121;-82
2022/05/28 08:33:22;;;;;;;12.45;4.95;;;14.50;99.90;;;;;;5049826;28;20041;-82
2022/05/28 08:35:53;;;;;;;13.80;5.50;;;14.60;99.90;;;;;;5065451;28;20048;-83
2022/05/28 08:38:21;;;;;;;15.95;4.88;;;14.60;99.90;;;;;;5064445;28;20102;-82
2022/05/28 08:41:00;;;;;;;13.70;5.50;;;14.60;99.90;;;;;;5065336;28;20064;-83
2022/05/28 08:43:53;;;;;;;16.15;5.13;;;14.70;99.90;;;;;;5066349;28;20040;-82
2022/05/28 08:46:20;;;;;;;12.80;5.57;;;14.70;99.90;;;;;;5045080;28;20061;-82
2022/05/28 08:48:56;;;;;;;17.33;6.03;;;14.70;99.90;;;;;;5070084;28;20039;-82
2022/05/28 08:51:54;;;;;;;12.77;5.22;;;14.70;99.90;;;;;;5083576;28;20040;-81
2022/05/28 08:54:30;;;;;;;8.52;5.47;;;14.80;99.90;;;;;;5060303;28;20223;-82
2022/05/28 08:57:06;;;;;;;14.48;5.55;;;14.80;99.90;;;;;;5064086;28;20048;-82
2022/05/28 08:59:59;;;;;;;14.63;6.20;;;14.90;99.90;;;;;;5058221;28;20691;-81
2022/05/28 09:02:37;;;;;;;15.70;5.28;;;14.90;99.90;;;;;;5060084;28;20612;-80
2022/05/28 09:05:06;;;;;;;11.20;4.60;;;14.90;99.90;;;;;;5063182;28;20048;-80
2022/05/28 09:07:35;;;;;;;10.50;4.45;;;14.90;99.90;;;;;;5062485;28;20045;-81
2022/05/28 09:10:10;;;;;;;13.82;4.90;;;15.00;99.90;;;;;;5046481;28;20551;-82
2022/05/28 09:12:45;;;;;;;12.07;4.75;;;14.50;99.90;;;;;;5060926;28;20052;-80
2022/05/28 09:15:13;;;;;;;11.18;3.70;;;15.00;99.90;;;;;;5043935;28;20041;-81
2022/05/28 09:17:46;;;;;;;8.95;3.92;;;15.80;99.90;;;;;;5064154;28;20049;-81
2022/05/28 09:20:26;;;;;;;12.15;5.82;;;15.10;99.90;;;;;;5050133;28;20040;-80
2022/05/28 09:22:56;;;;;;;9.98;3.97;;;15.20;99.90;;;;;;5066886;28;20044;-81
2022/05/28 09:25:34;;;;;;;11.07;5.20;;;15.20;99.90;;;;;;5067089;28;20640;-81
2022/05/28 09:28:16;;;;;;;12.02;4.00;;;15.20;99.90;;;;;;5064746;28;20045;-81
2022/05/28 09:31:00;;;;;;;17.60;6.03;;;15.20;99.90;;;;;;5064186;28;20136;-81
2022/05/28 09:34:16;;;;;;;15.55;4.03;;;15.30;99.90;;;;;;5061204;28;20100;-80
2022/05/28 09:37:04;;;;;;;13.90;3.90;;;15.30;99.90;;;;;;5066622;27;20048;-80
2022/05/28 09:40:09;;;;;;;9.30;4.80;;;15.30;99.90;;;;;;5049726;28;20067;-80
2022/05/28 09:43:08;;;;;;;17.05;3.40;;;15.40;99.90;;;;;;5065021;28;20048;-81
2022/05/28 09:45:40;;;;;;;8.75;3.50;;;15.50;99.90;;;;;;5064083;28;20527;-80
2022/05/28 09:48:23;;;;;;;6.20;2.80;;;15.10;99.90;;;;;;5048050;28;20036;-81
2022/05/28 09:51:30;;;;;;;11.23;3.25;;;15.70;99.90;;;;;;5081846;28;20049;-81
2022/05/28 09:54:21;;;;;;;8.20;3.20;;;15.90;99.90;;;;;;5048255;28;20553;-81
2022/05/28 09:57:03;;;;;;;5.00;2.55;;;16.00;99.90;;;;;;5063572;28;20060;-81
2022/05/28 09:59:37;;;;;;;;;;;16.10;99.90;;;;;;5066620;28;20059;-81
2022/05/28 10:02:17;;;;;;;9.80;3.30;;;16.10;99.90;;;;;;5064864;28;20384;-77
2022/05/28 10:05:14;;;;;;;8.02;3.00;;;16.30;99.90;;;;;;5066540;28;20049;-81
2022/05/28 10:07:46;;;;;;;9.27;3.25;;;16.50;99.90;;;;;;5065918;28;20515;-79
2022/05/28 10:10:28;;;;;;;9.07;2.90;;;16.60;99.90;;;;;;5065276;28;20045;-78
2022/05/28 10:13:06;;;;;;;11.95;2.97;;;16.70;99.90;;;;;;5065538;28;20578;-77
2022/05/28 10:15:39;;;;;;;7.25;2.55;;;16.80;99.90;;;;;;5047322;28;20045;-78
2022/05/28 10:18:26;;;;;;;6.85;3.55;;;16.50;99.90;;;;;;5044802;28;20131;-78
2022/05/28 10:21:17;;;;;;;9.80;3.58;;;16.90;99.90;;;;;;5079761;28;20095;-81
2022/05/28 10:23:50;;;;;;;39.42;14.57;;;17.00;99.90;;;;;;5060844;28;20057;-79
2022/05/28 10:26:29;;;;;;;165.10;64.97;;;17.10;99.90;;;;;;5063879;28;20598;-78
2022/05/28 10:29:01;;;;;;;70.60;26.90;;;17.00;99.90;;;;;;5063406;28;20055;-77
2022/05/28 10:31:38;;;;;;;22.45;8.82;;;17.10;99.90;;;;;;5062789;28;20109;-78
2022/05/28 10:34:06;;;;;;;62.22;20.60;;;17.20;99.90;;;;;;5064145;28;20332;-78
2022/05/28 10:36:35;;;;;;;16.67;6.85;;;17.50;99.90;;;;;;5064204;28;20365;-78
2022/05/28 10:39:10;;;;;;;34.95;13.15;;;17.50;99.90;;;;;;5082727;28;21457;-77
2022/05/28 10:41:41;;;;;;;11.27;4.20;;;17.60;99.90;;;;;;5065426;28;20052;-78
2022/05/28 10:44:08;;;;;;;17.42;5.05;;;17.70;99.90;;;;;;5060998;28;20542;-78
2022/05/28 10:46:52;;;;;;;10.30;5.20;;;17.80;99.90;;;;;;5065365;28;20163;-77
2022/05/28 10:49:51;;;;;;;8.88;4.22;;;17.80;99.90;;;;;;5065861;28;20163;-78
2022/05/28 10:52:39;;;;;;;12.52;4.28;;;17.90;99.90;;;;;;5047157;28;20045;-77
2022/05/28 10:55:10;;;;;;;11.43;4.35;;;17.80;99.90;;;;;;5063662;28;20052;-77
2022/05/28 10:57:47;;;;;;;14.85;4.75;;;17.70;99.90;;;;;;5065876;28;20068;-77
2022/05/28 11:00:32;;;;;;;8.65;2.65;;;17.70;99.90;;;;;;5064105;28;20100;-82
2022/05/28 11:03:07;;;;;;;8.35;2.40;;;17.70;99.90;;;;;;5065343;28;20942;-80
2022/05/28 11:06:02;;;;;;;9.95;5.53;;;17.70;99.90;;;;;;5069806;28;20041;-79
2022/05/28 11:08:42;;;;;;;11.05;4.32;;;17.30;99.90;;;;;;5079657;28;20582;-81
2022/05/28 11:11:30;;;;;;;14.13;3.55;;;17.70;99.90;;;;;;5065459;28;20537;-82
2022/05/28 11:14:11;;;;;;;8.02;2.90;;;17.60;99.90;;;;;;5063524;28;20111;-82
2022/05/28 11:17:07;;;;;;;3.50;2.13;;;17.80;99.90;;;;;;5064112;28;20511;-81
2022/05/28 11:20:01;;;;;;;9.60;3.33;;;17.90;99.90;;;;;;5079516;27;20893;-82
2022/05/28 11:22:58;;;;;;;6.95;2.00;;;17.90;99.90;;;;;;5065225;28;20501;-81
2022/05/28 11:25:55;;;;;;;;;;;;;;;;;;;;;
2022/05/28 11:32:24;;;;;;;6.75;2.33;;;17.60;99.90;;;;;;5063563;28;20129;-82
2022/05/28 11:35:29;;;;;;;4.88;3.13;;;17.70;99.90;;;;;;5061053;28;20048;-80
2022/05/28 11:38:04;;;;;;;3.63;2.47;;;17.20;99.90;;;;;;5066067;28;20147;-81
2022/05/28 11:41:10;;;;;;;8.73;2.53;;;17.90;99.90;;;;;;5047708;28;20060;-81
2022/05/28 11:44:20;;;;;;;4.97;2.08;;;17.90;99.80;;;;;;5066488;28;20047;-81
2022/05/28 11:47:01;;;;;;;5.15;1.65;;;17.90;99.60;;;;;;5024591;28;20052;-81
2022/05/28 11:53:10;;;;;;;4.93;2.13;;;17.80;98.90;;;;;;5069990;28;20057;-81
2022/05/28 11:55:48;;;;;;;3.33;1.33;;;17.80;98.80;;;;;;5051512;28;20040;-81
2022/05/28 11:58:35;;;;;;;5.30;1.95;;;17.90;98.70;;;;;;5052100;28;20118;-81
2022/05/28 12:01:18;;;;;;;7.38;2.20;;;17.70;98.30;;;;;;5051035;28;20874;-81
2022/05/28 12:03:52;;;;;;;11.10;1.98;;;17.80;97.90;;;;;;5067988;28;20049;-82
2022/05/28 12:06:31;;;;;;;3.83;1.65;;;17.80;97.40;;;;;;5067187;28;20048;-81
2022/05/28 12:09:22;;;;;;;6.97;1.70;;;17.80;96.80;;;;;;5066142;28;20107;-81
2022/05/28 12:12:06;;;;;;;8.60;2.05;;;17.90;96.70;;;;;;5069551;28;20116;-80
2022/05/28 12:14:41;;;;;;;4.20;1.40;;;17.90;96.10;;;;;;5050317;28;20045;-81
2022/05/28 12:17:29;;;;;;;5.05;2.25;;;18.00;95.90;;;;;;5068501;28;20041;-81
2022/05/28 12:20:10;;;;;;;3.17;1.90;;;18.00;95.60;;;;;;5067996;28;20103;-81
2022/05/28 12:22:54;;;;;;;6.28;2.60;;;18.10;95.70;;;;;;5068357;28;20594;-80
2022/05/28 12:25:34;;;;;;;3.40;1.98;;;18.10;95.60;;;;;;5068157;28;20622;-81
2022/05/28 12:28:12;;;;;;;8.23;1.63;;;18.00;95.30;;;;;;5069366;28;20593;-80
2022/05/28 12:30:49;;;;;;;4.93;1.98;;;18.10;95.60;;;;;;5069480;28;20521;-81
2022/05/28 12:33:45;;;;;;;7.18;2.05;;;18.20;95.40;;;;;;5082556;28;20049;-81
2022/05/28 12:36:22;;;;;;;2.97;1.80;;;18.30;95.00;;;;;;5068676;28;20048;-81
2022/05/28 12:39:05;;;;;;;6.25;2.08;;;18.30;94.50;;;;;;5068159;28;20044;-80
2022/05/28 12:41:41;;;;;;;3.03;1.52;;;18.20;94.20;;;;;;5066717;28;20045;-81
2022/05/28 12:44:33;;;;;;;5.55;2.03;;;18.20;93.50;;;;;;5067768;28;20078;-81
2022/05/28 12:47:29;;;;;;;6.82;1.45;;;18.20;93.50;;;;;;5067698;28;20040;-81
2022/05/28 12:50:35;;;;;;;9.55;1.50;;;18.40;93.40;;;;;;5050388;28;20098;-81
2022/05/28 12:53:39;;;;;;;3.65;1.50;;;18.40;93.40;;;;;;5066543;28;20052;-81
2022/05/28 12:56:32;;;;;;;5.97;1.67;;;18.30;93.30;;;;;;5064157;28;20048;-80
2022/05/28 12:59:38;;;;;;;6.03;2.72;;;18.20;93.00;;;;;;5067892;28;20041;-81
2022/05/28 13:02:18;;;;;;;5.28;2.25;;;18.20;92.50;;;;;;5008785;28;20308;-81
2022/05/28 13:05:10;;;;;;;4.45;2.10;;;18.30;92.80;;;;;;5066214;28;20511;-82
2022/05/28 13:07:56;;;;;;;5.50;1.50;;;18.60;92.80;;;;;;5051558;28;20586;-81
2022/05/28 13:10:30;;;;;;;2.33;1.30;;;18.40;92.30;;;;;;5067222;28;20341;-80
2022/05/28 13:13:33;;;;;;;7.18;1.80;;;18.30;92.30;;;;;;5066033;28;20144;-81
2022/05/28 13:16:29;;;;;;;6.90;1.60;;;18.40;92.20;;;;;;5067249;28;20043;-80
2022/05/28 13:19:45;;;;;;;3.65;1.20;;;18.50;92.10;;;;;;5050740;28;20040;-80
2022/05/28 13:22:29;;;;;;;5.65;1.38;;;18.70;92.00;;;;;;5050024;28;20049;-80
2022/05/28 13:25:04;;;;;;;5.03;1.50;;;18.70;91.60;;;;;;5050133;28;20052;-81
2022/05/28 13:27:52;;;;;;;5.07;1.35;;;18.60;91.40;;;;;;5067985;28;20048;-81
2022/05/28 13:30:33;;;;;;;3.53;1.98;;;18.30;91.20;;;;;;5066211;28;21013;-80
2022/05/28 13:33:14;;;;;;;4.43;1.40;;;18.50;91.20;;;;;;5050124;28;20045;-81
2022/05/28 13:36:02;;;;;;;4.72;1.73;;;18.50;91.00;;;;;;5066555;28;20128;-80
2022/05/28 13:39:03;;;;;;;9.63;4.25;;;18.60;90.70;;;;;;5065603;28;20044;-81
2022/05/28 13:41:40;;;;;;;7.15;1.35;;;18.50;90.50;;;;;;5059340;28;20053;-80